createdAt,value
2023-03-13T00:02:03.138Z,4.45
2023-03-13T00:04:29.328Z,5.15
2023-03-13T00:06:55.522Z,4.32
2023-03-13T00:09:23.323Z,4.13
2023-03-13T00:11:49.551Z,3.42
2023-03-13T00:14:15.775Z,4.10
2023-03-13T00:16:42.112Z,3.97
2023-03-13T00:19:08.838Z,4.40
2023-03-13T00:21:37.426Z,3.30
2023-03-13T00:24:03.766Z,4.05
2023-03-13T00:26:30.330Z,4.70
2023-03-13T00:28:56.592Z,4.05
2023-03-13T00:31:24.316Z,3.45
2023-03-13T00:33:53.424Z,4.20
2023-03-13T00:36:20.869Z,3.53
2023-03-13T00:38:47.098Z,3.38
2023-03-13T00:41:14.568Z,4.82
2023-03-13T00:43:41.723Z,3.72
2023-03-13T00:46:08.295Z,3.70
2023-03-13T00:48:34.997Z,3.95
2023-03-13T00:51:02.214Z,3.70
2023-03-13T00:53:28.643Z,4.00
2023-03-13T00:55:56.378Z,3.83
2023-03-13T00:58:23.430Z,4.35
2023-03-13T01:00:49.833Z,3.78
2023-03-13T01:03:16.569Z,3.58
2023-03-13T01:05:42.896Z,3.63
2023-03-13T01:08:09.125Z,3.95
2023-03-13T01:10:35.432Z,4.15
2023-03-13T01:13:01.703Z,3.90
2023-03-13T01:15:28.166Z,4.55
2023-03-13T01:17:54.397Z,4.05
2023-03-13T01:20:20.626Z,3.92
2023-03-13T01:22:46.838Z,4.50
2023-03-13T01:25:13.078Z,4.22
2023-03-13T01:27:39.285Z,4.15
2023-03-13T01:30:05.838Z,3.70
2023-03-13T01:32:33.428Z,3.75
2023-03-13T01:34:59.668Z,4.25
2023-03-13T01:37:25.874Z,3.42
2023-03-13T01:39:52.083Z,3.85
2023-03-13T01:42:18.278Z,3.55
2023-03-13T01:44:50.428Z,3.22
2023-03-13T01:47:16.629Z,2.97
2023-03-13T01:49:44.374Z,3.58
2023-03-13T01:52:13.457Z,3.67
2023-03-13T01:54:47.578Z,3.58
2023-03-13T01:57:18.574Z,2.88
2023-03-13T01:59:49.659Z,3.08
2023-03-13T02:02:16.118Z,3.80
2023-03-13T02:04:45.585Z,3.05
2023-03-13T02:07:15.649Z,2.88
2023-03-13T02:09:43.450Z,3.05
2023-03-13T02:12:11.565Z,3.20
2023-03-13T02:14:39.136Z,3.17
2023-03-13T02:17:06.668Z,3.03
2023-03-13T02:19:37.626Z,2.72
2023-03-13T02:22:12.467Z,2.97
2023-03-13T02:24:44.877Z,2.45
2023-03-13T02:27:11.277Z,2.30
2023-03-13T02:29:37.465Z,2.83
2023-03-13T02:32:04.065Z,2.47
2023-03-13T02:34:32.282Z,2.88
2023-03-13T02:36:59.315Z,1.90
2023-03-13T02:39:26.208Z,2.65
2023-03-13T02:41:53.026Z,2.08
2023-03-13T02:44:19.248Z,1.98
2023-03-13T02:46:50.394Z,2.03
2023-03-13T02:49:19.807Z,1.70
2023-03-13T02:51:46.542Z,1.90
2023-03-13T02:54:15.742Z,2.22
2023-03-13T02:56:42.972Z,1.88
2023-03-13T02:59:09.335Z,1.60
2023-03-13T03:01:35.514Z,1.58
2023-03-13T03:04:01.815Z,1.65
2023-03-13T03:06:28.009Z,1.60
2023-03-13T03:08:54.273Z,1.45
2023-03-13T03:11:20.504Z,1.80
2023-03-13T03:13:46.820Z,1.70
2023-03-13T03:16:15.234Z,1.40
2023-03-13T03:18:41.465Z,1.35
2023-03-13T03:21:07.999Z,0.93
2023-03-13T03:23:34.511Z,1.10
2023-03-13T03:26:01.276Z,1.17
2023-03-13T03:28:27.550Z,1.27
2023-03-13T03:30:55.227Z,1.08
2023-03-13T03:33:22.515Z,1.15
2023-03-13T03:35:49.464Z,0.85
2023-03-13T03:38:15.890Z,1.30
2023-03-13T03:40:42.244Z,1.00
2023-03-13T03:43:08.524Z,1.00
2023-03-13T03:45:34.733Z,0.80
2023-03-13T03:48:01.172Z,0.80
2023-03-13T03:50:27.535Z,1.00
2023-03-13T03:52:53.793Z,0.95
2023-03-13T03:55:20.362Z,1.20
2023-03-13T03:57:46.901Z,1.15
2023-03-13T04:00:15.705Z,1.05
2023-03-13T04:02:42.129Z,0.98
2023-03-13T04:05:08.650Z,0.90
2023-03-13T04:07:34.900Z,0.85
2023-03-13T04:10:01.134Z,0.90
2023-03-13T04:12:27.352Z,0.75
2023-03-13T04:14:53.592Z,0.80
2023-03-13T04:17:19.806Z,0.82
2023-03-13T04:19:46.032Z,1.08
2023-03-13T04:22:12.343Z,1.00
2023-03-13T04:24:38.553Z,0.90
2023-03-13T04:27:06.469Z,0.90
2023-03-13T04:29:33.002Z,1.00
2023-03-13T04:31:59.297Z,1.05
2023-03-13T04:34:25.482Z,1.20
2023-03-13T04:36:51.669Z,1.13
2023-03-13T04:39:17.886Z,0.93
2023-03-13T04:41:44.104Z,0.80
2023-03-13T04:44:10.352Z,0.98
2023-03-13T04:46:36.572Z,0.93
2023-03-13T04:49:02.884Z,1.00
2023-03-13T04:51:30.090Z,1.17
2023-03-13T04:53:56.326Z,0.95
2023-03-13T04:56:41.681Z,0.82
2023-03-13T04:59:10.616Z,0.70
2023-03-13T05:01:36.901Z,0.95
2023-03-13T05:04:03.211Z,0.73
2023-03-13T05:06:29.457Z,1.05
2023-03-13T05:08:55.680Z,0.90
2023-03-13T05:11:21.909Z,1.23
2023-03-13T05:13:48.226Z,0.80
2023-03-13T05:16:14.452Z,0.85
2023-03-13T05:18:40.717Z,0.90
2023-03-13T05:21:07.486Z,0.80
2023-03-13T05:23:33.963Z,1.00
2023-03-13T05:26:00.701Z,0.80
2023-03-13T05:28:27.149Z,0.70
2023-03-13T05:30:53.806Z,0.70
2023-03-13T05:33:20.234Z,0.80
2023-03-13T05:35:46.792Z,0.90
2023-03-13T05:38:13.893Z,0.82
2023-03-13T05:40:40.175Z,0.80
2023-03-13T05:43:06.689Z,0.80
2023-03-13T05:45:32.895Z,0.90
2023-03-13T05:47:59.178Z,1.00
2023-03-13T05:50:25.764Z,0.88
2023-03-13T05:52:52.043Z,0.70
2023-03-13T05:55:18.594Z,1.10
2023-03-13T05:57:45.724Z,1.00
2023-03-13T06:00:12.668Z,1.48
2023-03-13T06:02:38.876Z,1.20
2023-03-13T06:05:05.323Z,1.63
2023-03-13T06:07:31.606Z,1.30
2023-03-13T06:09:57.814Z,1.63
2023-03-13T06:12:24.036Z,1.45
2023-03-13T06:14:50.305Z,1.20
2023-03-13T06:17:16.558Z,1.30
2023-03-13T06:19:43.177Z,1.15
2023-03-13T06:22:09.396Z,1.33
2023-03-13T06:24:36.100Z,1.20
2023-03-13T06:27:02.325Z,1.35
2023-03-13T06:29:28.521Z,0.95
2023-03-13T06:31:54.774Z,1.02
2023-03-13T06:34:21.086Z,0.82
2023-03-13T06:36:47.304Z,0.82
2023-03-13T06:39:13.530Z,0.93
2023-03-13T06:41:39.728Z,0.93
2023-03-13T06:44:06.036Z,1.13
2023-03-13T06:46:32.285Z,1.10
2023-03-13T06:48:58.834Z,0.88
2023-03-13T06:51:26.226Z,1.00
2023-03-13T06:53:52.564Z,1.10
2023-03-13T06:56:18.830Z,1.05
2023-03-13T06:58:48.822Z,1.00
2023-03-13T07:01:15.794Z,1.13
2023-03-13T07:03:42.274Z,1.00
2023-03-13T07:06:09.188Z,1.42
2023-03-13T07:08:35.818Z,1.30
2023-03-13T07:11:07.061Z,1.20
2023-03-13T07:13:33.292Z,1.63
2023-03-13T07:16:00.250Z,1.45
2023-03-13T07:18:26.535Z,1.77
2023-03-13T07:20:54.284Z,1.52
2023-03-13T07:23:20.881Z,1.75
2023-03-13T07:25:54.638Z,1.67
2023-03-13T07:28:21.167Z,1.73
2023-03-13T07:30:47.414Z,1.75
2023-03-13T07:33:13.615Z,2.00
2023-03-13T07:35:41.149Z,2.13
2023-03-13T07:38:07.420Z,2.50
2023-03-13T07:40:33.618Z,2.10
2023-03-13T07:42:59.820Z,2.67
2023-03-13T07:45:26.023Z,2.10
2023-03-13T07:47:52.231Z,2.10
2023-03-13T07:50:18.557Z,2.35
2023-03-13T07:52:44.931Z,2.42
2023-03-13T07:55:11.156Z,1.98
2023-03-13T07:57:37.345Z,2.17
2023-03-13T08:00:03.948Z,2.30
2023-03-13T08:02:30.232Z,2.30
2023-03-13T08:04:58.853Z,2.40
2023-03-13T08:07:25.268Z,1.80
2023-03-13T08:09:51.486Z,2.50
2023-03-13T08:12:17.714Z,2.40
2023-03-13T08:14:43.928Z,2.38
2023-03-13T08:17:10.383Z,2.30
2023-03-13T08:19:36.572Z,3.00
2023-03-13T08:22:02.986Z,2.78
2023-03-13T08:24:29.191Z,2.10
2023-03-13T08:26:55.452Z,2.35
2023-03-13T08:29:21.662Z,2.55
2023-03-13T08:31:48.683Z,2.90
2023-03-13T08:34:15.904Z,2.42
2023-03-13T08:36:42.196Z,2.53
2023-03-13T08:39:12.440Z,2.90
2023-03-13T08:41:40.573Z,2.33
2023-03-13T08:44:07.558Z,2.58
2023-03-13T08:46:35.085Z,2.78
2023-03-13T08:49:02.015Z,2.97
2023-03-13T08:51:29.082Z,2.90
2023-03-13T08:53:58.631Z,3.25
2023-03-13T08:56:26.071Z,3.25
2023-03-13T08:58:53.490Z,2.50
2023-03-13T09:01:20.518Z,2.75
2023-03-13T09:03:46.936Z,3.05
2023-03-13T09:06:13.387Z,2.63
2023-03-13T09:08:40.263Z,2.45
2023-03-13T09:11:10.960Z,2.42
2023-03-13T09:13:39.655Z,2.87
2023-03-13T09:16:07.564Z,2.35
2023-03-13T09:18:34.540Z,2.00
2023-03-13T09:21:01.079Z,2.55
2023-03-13T09:23:27.303Z,2.40
2023-03-13T09:25:54.448Z,2.28
2023-03-13T09:28:20.740Z,2.10
2023-03-13T09:30:46.995Z,2.20
2023-03-13T09:33:13.236Z,1.90
2023-03-13T09:35:39.712Z,2.00
2023-03-13T09:38:06.666Z,1.75
2023-03-13T09:40:37.869Z,1.80
2023-03-13T09:43:04.453Z,2.08
2023-03-13T09:45:33.899Z,2.20
2023-03-13T09:48:06.682Z,2.08
2023-03-13T09:50:39.928Z,1.92
2023-03-13T09:53:13.828Z,2.15
2023-03-13T09:55:41.510Z,1.63
2023-03-13T09:58:10.727Z,1.80
2023-03-13T10:00:40.809Z,1.70
2023-03-13T10:03:27.291Z,1.90
2023-03-13T10:05:55.685Z,1.80
2023-03-13T10:08:23.021Z,1.60
2023-03-13T10:11:11.505Z,1.60
2023-03-13T10:13:41.292Z,1.27
2023-03-13T10:16:18.988Z,1.42
2023-03-13T10:18:47.614Z,1.50
2023-03-13T10:21:17.939Z,1.60
2023-03-13T10:23:59.235Z,1.48
2023-03-13T10:26:29.399Z,1.40
2023-03-13T10:29:01.659Z,1.67
2023-03-13T10:31:36.319Z,1.38
2023-03-13T10:34:06.698Z,1.02
2023-03-13T10:36:39.946Z,1.27
2023-03-13T10:39:08.714Z,1.00
2023-03-13T10:41:36.066Z,1.00
2023-03-13T10:44:06.755Z,1.17
2023-03-13T10:46:34.267Z,1.00
2023-03-13T10:49:01.974Z,1.10
2023-03-13T10:51:38.769Z,1.00
2023-03-13T10:54:13.608Z,0.85
2023-03-13T10:56:39.793Z,1.00
2023-03-13T10:59:16.967Z,0.70
2023-03-13T11:01:44.767Z,0.98
2023-03-13T11:04:20.168Z,0.80
2023-03-13T11:06:52.879Z,0.90
2023-03-13T11:09:19.439Z,0.82
2023-03-13T11:11:47.100Z,0.80
2023-03-13T11:14:23.526Z,0.77
2023-03-13T11:16:54.904Z,0.70
2023-03-13T11:19:42.532Z,0.60
2023-03-13T11:22:17.005Z,0.70
2023-03-13T11:24:49.121Z,0.70
2023-03-13T11:27:23.276Z,0.80
2023-03-13T11:30:09.820Z,0.80
2023-03-13T11:32:42.035Z,0.60
2023-03-13T11:35:21.450Z,0.65
2023-03-13T11:37:49.353Z,0.60
2023-03-13T11:40:15.529Z,0.70
2023-03-13T11:42:44.611Z,0.65
2023-03-13T11:45:29.646Z,0.50
2023-03-13T11:47:58.758Z,0.60
2023-03-13T11:50:40.045Z,0.50
2023-03-13T11:53:09.958Z,0.45
2023-03-13T11:55:48.541Z,0.50
2023-03-13T11:58:24.045Z,0.50
2023-03-13T12:01:13.675Z,0.50
2023-03-13T12:03:40.004Z,0.60
2023-03-13T12:06:27.023Z,0.40
2023-03-13T12:08:57.541Z,0.50
2023-03-13T12:11:26.555Z,0.45
2023-03-13T12:14:11.601Z,0.70
2023-03-13T12:16:40.917Z,0.80
2023-03-13T12:19:10.744Z,0.60
2023-03-13T12:21:38.600Z,0.60
2023-03-13T12:24:14.274Z,0.60
2023-03-13T12:26:52.994Z,0.70
2023-03-13T12:29:51.642Z,0.70
2023-03-13T12:32:36.397Z,0.90
2023-03-13T12:35:17.936Z,0.82
2023-03-13T12:37:53.323Z,0.88
2023-03-13T12:40:19.545Z,0.80
2023-03-13T12:42:55.693Z,0.80
2023-03-13T12:45:24.779Z,0.80
2023-03-13T12:48:06.605Z,0.73
2023-03-13T12:50:51.727Z,1.10
2023-03-13T12:53:30.229Z,0.98
2023-03-13T12:56:15.334Z,0.80
2023-03-13T12:58:45.265Z,0.77
2023-03-13T13:01:23.783Z,0.73
2023-03-13T13:03:55.591Z,0.77
2023-03-13T13:06:22.045Z,0.80
2023-03-13T13:09:01.269Z,0.60
2023-03-13T13:11:33.517Z,0.85
2023-03-13T13:14:25.800Z,0.80
2023-03-13T13:16:56.079Z,1.00
2023-03-13T13:19:25.321Z,0.80
2023-03-13T13:22:26.897Z,0.77
2023-03-13T13:24:57.217Z,0.93
2023-03-13T13:27:47.026Z,0.93
2023-03-13T13:30:19.466Z,0.90
2023-03-13T13:32:48.892Z,1.00
2023-03-13T13:35:20.251Z,1.08
2023-03-13T13:37:49.346Z,1.13
2023-03-13T13:40:15.790Z,1.13
2023-03-13T13:42:51.404Z,1.00
2023-03-13T13:45:21.563Z,1.10
2023-03-13T13:47:48.762Z,0.85
2023-03-13T13:50:19.364Z,1.20
2023-03-13T13:52:45.663Z,1.13
2023-03-13T13:55:32.144Z,1.20
2023-03-13T13:58:04.119Z,0.98
2023-03-13T14:00:40.779Z,0.80
2023-03-13T14:03:17.876Z,1.15
2023-03-13T14:05:45.712Z,1.10
2023-03-13T14:08:22.941Z,0.95
2023-03-13T14:10:52.287Z,1.27
2023-03-13T14:13:20.474Z,1.00
2023-03-13T14:15:47.722Z,1.00
2023-03-13T14:18:19.782Z,1.10
2023-03-13T14:21:13.363Z,0.80
2023-03-13T14:23:44.806Z,1.00
2023-03-13T14:26:13.339Z,1.02
2023-03-13T14:28:43.608Z,0.75
2023-03-13T14:31:11.898Z,0.90
2023-03-13T14:33:38.201Z,0.90
2023-03-13T14:36:04.677Z,0.73
2023-03-13T14:38:32.823Z,0.90
2023-03-13T14:40:59.193Z,0.80
2023-03-13T14:43:41.461Z,0.80
2023-03-13T14:46:15.169Z,0.88
2023-03-13T14:48:41.756Z,0.90
2023-03-13T14:51:17.604Z,0.70
2023-03-13T14:53:55.474Z,0.90
2023-03-13T14:56:30.293Z,0.60
2023-03-13T14:59:06.196Z,0.90
2023-03-13T15:01:32.427Z,0.70
2023-03-13T15:03:58.694Z,0.70
2023-03-13T15:06:25.008Z,0.80
2023-03-13T15:09:09.651Z,0.65
2023-03-13T15:11:38.590Z,0.60
2023-03-13T15:14:24.795Z,0.90
2023-03-13T15:16:51.104Z,0.60
2023-03-13T15:19:17.448Z,0.60
2023-03-13T15:21:43.671Z,0.70
2023-03-13T15:24:13.842Z,0.75
2023-03-13T15:26:40.084Z,0.70
2023-03-13T15:29:06.366Z,0.60
2023-03-13T15:31:32.622Z,0.90
2023-03-13T15:33:59.720Z,1.05
2023-03-13T15:36:27.023Z,0.80
2023-03-13T15:38:53.247Z,0.77
2023-03-13T15:41:20.431Z,0.73
2023-03-13T15:43:47.083Z,0.95
2023-03-13T15:46:14.448Z,0.80
2023-03-13T15:48:42.004Z,0.60
2023-03-13T15:51:14.220Z,0.80
2023-03-13T15:53:41.345Z,0.82
2023-03-13T15:56:13.350Z,1.17
2023-03-13T15:58:39.643Z,1.00
2023-03-13T16:01:06.033Z,1.20
2023-03-13T16:03:32.396Z,1.10
2023-03-13T16:05:58.598Z,1.50
2023-03-13T16:08:35.295Z,1.40
2023-03-13T16:11:02.789Z,1.27
2023-03-13T16:13:29.013Z,1.27
2023-03-13T16:15:55.231Z,0.95
2023-03-13T16:18:22.842Z,1.10
2023-03-13T16:20:49.233Z,1.40
2023-03-13T16:23:16.718Z,1.13
2023-03-13T16:25:44.431Z,1.23
2023-03-13T16:28:12.024Z,1.30
2023-03-13T16:30:41.224Z,1.25
2023-03-13T16:33:07.858Z,1.55
2023-03-13T16:35:34.235Z,1.58
2023-03-13T16:38:00.541Z,1.13
2023-03-13T16:40:29.468Z,1.35
2023-03-13T16:42:55.702Z,1.60
2023-03-13T16:45:22.184Z,1.52
2023-03-13T16:47:48.672Z,1.25
2023-03-13T16:50:14.863Z,1.58
2023-03-13T16:52:41.069Z,1.30
2023-03-13T16:55:07.515Z,1.25
2023-03-13T16:57:33.711Z,1.48
2023-03-13T16:59:59.929Z,1.77
2023-03-13T17:02:28.193Z,1.70
2023-03-13T17:04:54.644Z,1.50
2023-03-13T17:07:26.498Z,1.40
2023-03-13T17:09:53.032Z,1.55
2023-03-13T17:12:19.299Z,1.90
2023-03-13T17:14:45.594Z,1.70
2023-03-13T17:17:16.453Z,1.80
2023-03-13T17:19:42.678Z,1.38
2023-03-13T17:22:11.473Z,1.90
2023-03-13T17:24:37.679Z,1.80
2023-03-13T17:27:04.012Z,1.70
2023-03-13T17:29:30.236Z,2.00
2023-03-13T17:31:56.451Z,1.60
2023-03-13T17:34:23.536Z,1.80
2023-03-13T17:36:49.750Z,1.60
2023-03-13T17:39:16.062Z,2.17
2023-03-13T17:41:42.317Z,1.77
2023-03-13T17:44:08.692Z,1.80
2023-03-13T17:46:37.829Z,1.88
2023-03-13T17:49:04.126Z,1.60
2023-03-13T17:51:31.326Z,1.50
2023-03-13T17:53:58.032Z,1.88
2023-03-13T17:56:44.504Z,1.65
2023-03-13T17:59:14.974Z,2.03
2023-03-13T18:01:41.994Z,2.03
2023-03-13T18:04:08.454Z,1.83
2023-03-13T18:06:39.436Z,1.48
2023-03-13T18:09:07.862Z,1.92
2023-03-13T18:11:37.741Z,1.77
2023-03-13T18:14:05.360Z,1.90
2023-03-13T18:16:40.359Z,2.10
2023-03-13T18:19:08.246Z,1.77
2023-03-13T18:21:34.679Z,2.10
2023-03-13T18:24:02.773Z,1.98
2023-03-13T18:26:30.283Z,1.83
2023-03-13T18:29:00.221Z,1.77
2023-03-13T18:31:31.251Z,1.58
2023-03-13T18:33:58.107Z,2.13
2023-03-13T18:36:24.431Z,2.05
2023-03-13T18:38:50.786Z,1.88
2023-03-13T18:41:17.616Z,2.05
2023-03-13T18:43:44.239Z,2.28
2023-03-13T18:46:27.902Z,2.30
2023-03-13T18:48:54.687Z,2.47
2023-03-13T18:51:23.866Z,2.30
2023-03-13T18:53:50.696Z,2.22
2023-03-13T18:56:24.948Z,2.05
2023-03-13T18:58:51.900Z,2.10
2023-03-13T19:01:19.992Z,1.85
2023-03-13T19:03:46.800Z,1.83
2023-03-13T19:06:19.169Z,1.80
2023-03-13T19:08:46.038Z,1.80
2023-03-13T19:11:12.948Z,1.70
2023-03-13T19:13:39.443Z,1.85
2023-03-13T19:16:22.598Z,1.75
2023-03-13T19:18:49.387Z,1.90
2023-03-13T19:21:20.001Z,1.60
2023-03-13T19:23:46.461Z,1.60
2023-03-13T19:26:33.141Z,1.80
2023-03-13T19:28:59.668Z,1.70
2023-03-13T19:31:26.079Z,1.63
2023-03-13T19:33:55.360Z,1.70
2023-03-13T19:36:23.163Z,1.92
2023-03-13T19:38:49.773Z,2.08
2023-03-13T19:41:16.326Z,2.60
2023-03-13T19:43:42.983Z,1.90
2023-03-13T19:46:17.223Z,2.00
2023-03-13T19:48:43.438Z,2.05
2023-03-13T19:51:09.668Z,2.60
2023-03-13T19:53:35.874Z,2.10
2023-03-13T19:56:02.078Z,1.60
2023-03-13T19:58:28.333Z,2.25
2023-03-13T20:00:55.313Z,2.13
2023-03-13T20:03:21.661Z,2.20
2023-03-13T20:05:48.124Z,2.00
2023-03-13T20:08:14.354Z,2.20
2023-03-13T20:10:40.712Z,2.40
2023-03-13T20:13:06.922Z,2.22
2023-03-13T20:15:33.154Z,2.30
2023-03-13T20:17:59.356Z,2.63
2023-03-13T20:20:25.624Z,2.20
2023-03-13T20:22:53.986Z,2.38
2023-03-13T20:25:20.271Z,2.28
2023-03-13T20:27:46.490Z,2.20
2023-03-13T20:30:12.885Z,2.40
2023-03-13T20:32:46.217Z,2.13
2023-03-13T20:35:23.107Z,2.00
2023-03-13T20:37:50.020Z,2.03
2023-03-13T20:40:16.345Z,1.92
2023-03-13T20:42:42.538Z,2.47
2023-03-13T20:45:09.352Z,1.63
2023-03-13T20:47:35.701Z,1.80
2023-03-13T20:50:02.005Z,2.03
2023-03-13T20:52:28.237Z,3.72
2023-03-13T20:54:54.448Z,2.25
2023-03-13T20:57:21.050Z,4.32
2023-03-13T20:59:47.315Z,2.50
2023-03-13T21:02:13.637Z,2.30
2023-03-13T21:04:39.893Z,2.30
2023-03-13T21:07:06.122Z,2.45
2023-03-13T21:09:33.981Z,2.50
2023-03-13T21:12:00.921Z,3.15
2023-03-13T21:14:27.292Z,2.40
2023-03-13T21:16:53.554Z,2.40
2023-03-13T21:19:19.784Z,2.38
2023-03-13T21:21:47.490Z,2.10
2023-03-13T21:24:13.997Z,2.25
2023-03-13T21:26:40.172Z,2.72
2023-03-13T21:29:08.663Z,2.40
2023-03-13T21:31:36.094Z,2.92
2023-03-13T21:34:03.709Z,2.60
2023-03-13T21:36:29.973Z,2.60
2023-03-13T21:38:56.208Z,2.72
2023-03-13T21:41:22.449Z,2.28
2023-03-13T21:43:48.724Z,2.58
2023-03-13T21:46:16.349Z,2.80
2023-03-13T21:48:43.480Z,2.60
2023-03-13T21:51:10.433Z,2.90
2023-03-13T21:53:37.194Z,3.05
2023-03-13T21:56:03.938Z,3.30
2023-03-13T21:58:30.291Z,2.70
2023-03-13T22:00:57.235Z,2.75
2023-03-13T22:03:24.083Z,2.72
2023-03-13T22:05:50.350Z,2.13
2023-03-13T22:08:16.564Z,2.78
2023-03-13T22:10:47.671Z,2.28
2023-03-13T22:13:13.878Z,2.20
2023-03-13T22:15:43.238Z,1.90
2023-03-13T22:18:09.432Z,2.10
2023-03-13T22:20:35.618Z,2.25
2023-03-13T22:23:01.832Z,2.17
2023-03-13T22:25:28.040Z,2.30
2023-03-13T22:27:54.263Z,1.90
2023-03-13T22:30:20.501Z,1.80
2023-03-13T22:32:46.735Z,2.08
2023-03-13T22:35:13.053Z,2.35
2023-03-13T22:37:39.256Z,2.28
2023-03-13T22:40:05.856Z,2.15
2023-03-13T22:42:32.051Z,1.83
2023-03-13T22:44:58.274Z,2.22
2023-03-13T22:47:25.673Z,1.88
2023-03-13T22:49:53.344Z,2.10
2023-03-13T22:52:19.946Z,2.05
2023-03-13T22:54:46.515Z,1.85
2023-03-13T22:57:13.160Z,1.70
2023-03-13T22:59:39.378Z,2.17
2023-03-13T23:02:05.575Z,1.73
2023-03-13T23:04:31.774Z,1.90
2023-03-13T23:06:57.991Z,2.13
2023-03-13T23:09:24.197Z,2.25
2023-03-13T23:11:50.417Z,2.20
2023-03-13T23:14:16.606Z,2.13
2023-03-13T23:16:42.904Z,2.60
2023-03-13T23:19:09.112Z,1.80
2023-03-13T23:21:36.360Z,1.92
2023-03-13T23:24:02.561Z,1.85
2023-03-13T23:26:28.763Z,1.77
2023-03-13T23:28:55.013Z,1.90
2023-03-13T23:31:22.046Z,2.10
2023-03-13T23:33:48.662Z,1.90
2023-03-13T23:36:16.075Z,1.83
2023-03-13T23:38:42.386Z,2.50
2023-03-13T23:41:09.585Z,1.80
2023-03-13T23:43:36.227Z,2.30
2023-03-13T23:46:03.067Z,2.33
2023-03-13T23:48:29.266Z,2.28
2023-03-13T23:50:55.548Z,2.30
2023-03-13T23:53:22.028Z,2.08
2023-03-13T23:55:48.216Z,2.40
2023-03-13T23:58:14.415Z,2.45
